Weather at Atauro Airport

Public forecast

Using degrees Celsius for public forecast. Weather courtesy of forecast.io.

Closest aviation weather report (METAR) to Atauro Airport

Closest report is El Tari Airport, 163.0 nm (301.8 km) SW. Retrieved 2020/10/20 22:30 UTC (0 seconds ago):

WATT 202230Z 06005KT 9999 FEW018 27/23 Q1011 NOSIG

Closest aviation forecast (TAF) to Atauro Airport

Closest forecast is Presidente Nicolau Lobato International Airport, 18.8 nm (34.9 km) SSW. Retrieved 2020/10/20 18:36 UTC (4 hours ago):

TAF WPDL 201702Z 2018/2106 15006KT 9999 SCT020 FM210000 33008KT 9999 SCT035